Time;durP1;ratioP1;P1;durP2;ratioP2;P2;SDS_P1;SDS_P2;PMS_P1;PMS_P2;Temp;Humidity;BMP_temperature;BMP_pressure;BME280_temperature;BME280_humidity;BME280_pressure;Samples;Min_cycle;Max_cycle;Signal;HPM_P1;HPM_P2
2021/01/03 00:00:44;;;;;;;;;;;;;;;-3.04;95.26;92099.88;1061287;56;20158;-85
2021/01/03 00:01:46;;;;;;;;;;;;;;;-3.07;95.84;92098.72;1063485;55;20655;-83
2021/01/03 00:02:50;;;;;;;;;;;;;;;-2.93;95.78;92105.97;1061281;55;20169;-83
2021/01/03 00:03:50;;;;;;;;;;;;;;;-2.98;95.82;92108.16;1061309;55;20158;-82
2021/01/03 00:04:51;;;;;;;;;;;;;;;-3.04;95.85;92098.00;1065533;55;20162;-84
2021/01/03 00:05:52;;;;;;;;;;;;;;;-3.01;95.93;92103.63;1065446;55;20161;-83
2021/01/03 00:06:54;;;;;;;;;;;;;;;-3.09;96.14;92100.19;1065502;55;20166;-83
2021/01/03 00:07:54;;;;;;;;;;;;;;;-3.05;96.09;92104.34;1063370;55;20307;-84
2021/01/03 00:08:54;;;;;;;;;;;;;;;-3.07;96.22;92096.13;1059056;56;21372;-85
2021/01/03 00:09:55;;;;;;;;;;;;;;;-3.00;96.11;92105.13;1059141;56;20239;-83
2021/01/03 00:10:55;;;;;;;;;;;;;;;-3.08;95.38;92096.44;1061216;56;20162;-83
2021/01/03 00:11:56;;;;;;;;;;;;;;;-3.07;95.61;92097.97;1063341;55;20158;-85
2021/01/03 00:12:56;;;;;;;;;;;;;;;-3.02;95.76;92099.53;1063210;55;20609;-85
2021/01/03 00:13:57;;;;;;;;;;;;;;;-2.92;95.17;92102.25;1065581;55;20169;-83
2021/01/03 00:14:57;;;;;;;;;;;;;;;-3.00;95.35;92102.53;1063318;55;20643;-83
2021/01/03 00:15:58;;;;;;;;;;;;;;;-3.07;94.34;92101.34;1061274;56;20162;-83
2021/01/03 00:17:00;;;;;;;;;;;;;;;-3.11;94.85;92102.41;1063320;55;20197;-83
2021/01/03 00:18:00;;;;;;;;;;;;;;;-3.16;95.43;92100.84;1063302;55;20153;-84
2021/01/03 00:19:01;;;;;;;;;;;;;;;-3.18;95.05;92102.31;1065511;55;20297;-87
2021/01/03 00:20:01;;;;;;;;;;;;;;;-3.20;94.61;92097.44;1065511;55;20169;-83
2021/01/03 00:21:02;;;;;;;;;;;;;;;-3.14;95.18;92097.87;1065418;55;20642;-83
2021/01/03 00:22:03;;;;;;;;;;;;;;;-3.19;95.50;92090.34;1063342;55;20169;-84
2021/01/03 00:23:04;;;;;;;;;;;;;;;-3.17;95.69;92098.59;1063276;56;20193;-83
2021/01/03 00:24:05;;;;;;;;;;;;;;;-3.15;95.07;92099.75;1063460;55;20154;-83
2021/01/03 00:25:10;;;;;;;;;;;;;;;-3.22;95.78;92102.25;1063222;56;20742;-84
2021/01/03 00:26:10;;;;;;;;;;;;;;;-3.16;95.36;92094.84;1063393;55;20181;-86
2021/01/03 00:27:14;;;;;;;;;;;;;;;-3.21;95.48;92098.53;1063378;55;20267;-83
2021/01/03 00:28:15;;;;;;;;;;;;;;;-3.16;95.29;92094.84;1063313;56;20251;-86
2021/01/03 00:29:18;;;;;;;;;;;;;;;-3.19;95.07;92090.34;1065472;55;20254;-83
2021/01/03 00:30:21;;;;;;;;;;;;;;;-3.11;95.65;92091.94;1063247;56;20286;-82
2021/01/03 00:31:23;;;;;;;;;;;;;;;-3.17;95.61;92094.09;1063376;55;20654;-83
2021/01/03 00:32:23;;;;;;;;;;;;;;;-3.18;95.00;92097.09;1065535;55;20164;-84
2021/01/03 00:33:24;;;;;;;;;;;;;;;-3.17;95.25;92098.59;1065616;55;20169;-85
2021/01/03 00:34:24;;;;;;;;;;;;;;;-3.20;94.31;92097.44;1061183;56;20158;-84
2021/01/03 00:35:28;;;;;;;;;;;;;;;-3.20;95.23;92092.22;1063341;56;20189;-83
2021/01/03 00:36:29;;;;;;;;;;;;;;;-3.24;94.92;92096.66;1061338;55;20192;-83
2021/01/03 00:37:29;;;;;;;;;;;;;;;-3.20;94.70;92089.59;1061473;56;20177;-84
2021/01/03 00:38:30;;;;;;;;;;;;;;;-3.21;95.27;92088.06;1061376;56;20698;-83
2021/01/03 00:39:30;;;;;;;;;;;;;;;-3.15;94.45;92099.00;1063604;55;20145;-84
2021/01/03 00:40:31;;;;;;;;;;;;;;;-3.18;94.72;92099.69;1063603;55;20590;-84
2021/01/03 00:41:31;;;;;;;;;;;;;;;-3.09;94.90;92093.09;1061369;56;20575;-85
2021/01/03 00:42:35;;;;;;;;;;;;;;;-3.08;95.01;92097.19;1061749;55;20162;-83
2021/01/03 00:43:36;;;;;;;;;;;;;;;-3.13;94.79;92096.75;1061633;56;20161;-83
2021/01/03 00:44:36;;;;;;;;;;;;;;;-3.12;95.52;92098.25;1061266;56;20154;-84
2021/01/03 00:45:37;;;;;;;;;;;;;;;-3.23;94.84;92097.41;1065856;55;20172;-83
2021/01/03 00:46:37;;;;;;;;;;;;;;;-3.19;95.19;92096.34;1061628;56;20193;-85
2021/01/03 00:47:37;;;;;;;;;;;;;;;-3.15;95.32;92094.53;1061518;56;20189;-85
2021/01/03 00:48:38;;;;;;;;;;;;;;;-3.17;95.86;92101.94;1063679;55;20270;-81
2021/01/03 00:49:38;;;;;;;;;;;;;;;-3.13;96.27;92094.91;1065933;55;20555;-82
2021/01/03 00:50:39;;;;;;;;;;;;;;;-3.16;95.67;92107.91;1061234;56;20178;-82
2021/01/03 00:51:39;;;;;;;;;;;;;;;-3.16;95.64;92106.09;1063580;55;20189;-85
2021/01/03 00:52:40;;;;;;;;;;;;;;;-3.13;95.58;92094.91;1063634;55;20201;-83
2021/01/03 00:53:40;;;;;;;;;;;;;;;-3.13;95.28;92091.53;1061602;56;20184;-83
2021/01/03 00:54:41;;;;;;;;;;;;;;;-3.13;95.74;92094.16;1061432;56;20158;-84
2021/01/03 00:55:41;;;;;;;;;;;;;;;-3.14;94.75;92093.41;1063641;55;20177;-84
2021/01/03 00:56:42;;;;;;;;;;;;;;;-3.18;94.52;92095.22;1063444;55;20162;-84
2021/01/03 00:57:42;;;;;;;;;;;;;;;-3.13;95.43;92099.38;1061425;56;20181;-84
2021/01/03 00:58:43;;;;;;;;;;;;;;;-3.15;94.42;92094.53;1063745;55;20170;-84
2021/01/03 00:59:43;;;;;;;;;;;;;;;-3.21;94.59;92093.31;1063731;55;20572;-84
2021/01/03 01:00:44;;;;;;;;;;;;;;;-3.15;95.05;92093.78;1061489;56;20189;-85
2021/01/03 01:01:44;;;;;;;;;;;;;;;-3.15;94.56;92088.53;1061500;56;20260;-82
2021/01/03 01:02:46;;;;;;;;;;;;;;;-3.20;94.19;92083.63;1061452;56;20210;-83
2021/01/03 01:03:48;;;;;;;;;;;;;;;-3.27;95.12;92092.13;1061595;56;20622;-84
2021/01/03 01:04:48;;;;;;;;;;;;;;;-3.26;94.52;92095.47;1059392;56;20158;-84
2021/01/03 01:05:49;;;;;;;;;;;;;;;-3.26;95.29;92101.47;1059359;56;20146;-84
2021/01/03 01:06:49;;;;;;;;;;;;;;;-3.30;95.31;92090.97;1063741;55;20166;-84
2021/01/03 01:07:50;;;;;;;;;;;;;;;-3.28;94.97;92082.03;1063677;55;20174;-84
2021/01/03 01:08:51;;;;;;;;;;;;;;;-3.35;95.49;92090.53;1061581;56;20193;-83
2021/01/03 01:09:53;;;;;;;;;;;;;;;-3.30;95.18;92093.56;1059304;56;20646;-83
2021/01/03 01:10:53;;;;;;;;;;;;;;;-3.27;95.32;92088.75;1061535;56;20283;-82
2021/01/03 01:11:54;;;;;;;;;;;;;;;-3.19;94.83;92092.97;1061610;56;20189;-83
2021/01/03 01:12:56;;;;;;;;;;;;;;;-3.20;95.95;92094.09;1059535;56;20160;-83
2021/01/03 01:13:56;;;;;;;;;;;;;;;-3.16;96.25;92097.47;1061676;56;20184;-84
2021/01/03 01:14:57;;;;;;;;;;;;;;;-3.18;95.03;92089.25;1059402;56;20167;-82
2021/01/03 01:15:59;;;;;;;;;;;;;;;-3.18;94.83;92092.59;1061609;56;20220;-84
2021/01/03 01:17:00;;;;;;;;;;;;;;;-3.18;94.89;92095.22;1061688;56;20184;-83
2021/01/03 01:18:05;;;;;;;;;;;;;;;-3.19;95.22;92090.34;1059370;56;20177;-85
2021/01/03 01:19:07;;;;;;;;;;;;;;;-3.23;94.89;92095.53;1061734;56;20170;-84
2021/01/03 01:20:08;;;;;;;;;;;;;;;-3.28;95.13;92093.22;1061437;56;20161;-84
2021/01/03 01:21:11;;;;;;;;;;;;;;;-3.22;95.56;92085.84;1061602;56;20268;-83
2021/01/03 01:22:12;;;;;;;;;;;;;;;-3.29;95.73;92096.97;1059471;56;20284;-84
2021/01/03 01:23:12;;;;;;;;;;;;;;;-3.31;95.56;92093.94;1059275;56;20178;-85
2021/01/03 01:24:14;;;;;;;;;;;;;;;-3.36;95.71;92091.63;1059621;56;20202;-84
2021/01/03 01:25:17;;;;;;;;;;;;;;;-3.32;94.81;92095.03;1063751;55;20638;-84
2021/01/03 01:26:17;;;;;;;;;;;;;;;-3.29;95.44;92091.72;1061625;56;20682;-82
2021/01/03 01:27:18;;;;;;;;;;;;;;;-3.35;95.39;92095.75;1059427;56;20158;-83
2021/01/03 01:28:19;;;;;;;;;;;;;;;-3.32;95.10;92095.03;1063688;55;20170;-84
2021/01/03 01:29:20;;;;;;;;;;;;;;;-3.31;94.99;92088.72;1061427;56;20642;-83
2021/01/03 01:30:21;;;;;;;;;;;;;;;-3.38;95.98;92097.22;1059427;56;20176;-84
2021/01/03 01:31:22;;;;;;;;;;;;;;;-3.34;95.90;92094.63;1061549;56;20166;-84
2021/01/03 01:32:23;;;;;;;;;;;;;;;-3.30;95.22;92100.66;1061622;56;21278;-83
2021/01/03 01:33:24;;;;;;;;;;;;;;;-3.25;95.36;92094.38;1061569;56;20177;-84
2021/01/03 01:34:24;;;;;;;;;;;;;;;-3.21;96.15;92097.78;1059415;56;20686;-84
2021/01/03 01:35:26;;;;;;;;;;;;;;;-3.25;96.05;92091.75;1061769;56;20177;-84
2021/01/03 01:36:27;;;;;;;;;;;;;;;-3.28;95.32;92092.47;1063594;55;20583;-84
2021/01/03 01:37:28;;;;;;;;;;;;;;;-3.32;95.47;92097.66;1061564;56;20255;-84
2021/01/03 01:38:29;;;;;;;;;;;;;;;-3.27;95.75;92097.34;1059393;56;20186;-83
2021/01/03 01:39:30;;;;;;;;;;;;;;;-3.26;95.53;92098.09;1061496;56;20181;-84
2021/01/03 01:40:33;;;;;;;;;;;;;;;-3.28;95.98;92095.84;1059371;56;20197;-83
2021/01/03 01:41:33;;;;;;;;;;;;;;;-3.27;95.53;92092.13;1059583;56;20205;-86
2021/01/03 01:42:35;;;;;;;;;;;;;;;-3.26;95.62;92098.09;1061737;56;20153;-84
2021/01/03 01:43:38;;;;;;;;;;;;;;;-3.32;96.11;92087.97;1061622;56;20654;-82
2021/01/03 01:44:39;;;;;;;;;;;;;;;-3.32;95.26;92087.97;1061636;56;20259;-82
2021/01/03 01:45:40;;;;;;;;;;;;;;;-3.24;95.54;92090.66;1063685;55;20162;-82
2021/01/03 01:46:48;;;;;;;;;;;;;;;-3.25;95.78;92091.75;1063626;55;20173;-84
2021/01/03 01:47:50;;;;;;;;;;;;;;;-3.24;95.23;92091.41;1063647;55;20197;-83
2021/01/03 01:48:50;;;;;;;;;;;;;;;-3.27;95.56;92093.97;1063603;55;20753;-86
2021/01/03 01:49:52;;;;;;;;;;;;;;;-3.28;95.86;92093.22;1065844;55;20197;-84
2021/01/03 01:51:05;;;;;;;;;;;;;;;-3.24;95.92;92096.66;1063568;55;20255;-84
2021/01/03 01:52:06;;;;;;;;;;;;;;;-3.23;95.82;92095.53;1064088;55;20184;-82
2021/01/03 01:53:16;;;;;;;;;;;;;;;-3.17;96.24;92093.34;1063752;55;20697;-83
2021/01/03 01:54:23;;;;;;;;;;;;;;;-3.18;96.41;92092.59;1063897;55;20169;-83
2021/01/03 01:55:29;;;;;;;;;;;;;;;-3.18;96.08;92089.25;1063919;55;20256;-83
2021/01/03 01:56:33;;;;;;;;;;;;;;;-3.16;95.94;92087.00;1064109;55;20195;-83
2021/01/03 01:57:47;;;;;;;;;;;;;;;-3.05;95.17;92091.28;1063693;55;20266;-84
2021/01/03 01:58:53;;;;;;;;;;;;;;;-3.15;95.07;92093.78;1060256;56;20221;-85
2021/01/03 02:00:15;;;;;;;;;;;;;;;-3.11;94.81;92087.47;1064189;55;20646;-83
2021/01/03 02:01:18;;;;;;;;;;;;;;;-3.05;94.84;92086.03;1062781;56;20162;-83
2021/01/03 02:02:26;;;;;;;;;;;;;;;-3.02;95.05;92089.06;1059620;56;20177;-84
2021/01/03 02:03:26;;;;;;;;;;;;;;;-3.00;95.20;92094.69;1061864;55;20189;-84
2021/01/03 02:04:39;;;;;;;;;;;;;;;-2.97;94.67;92088.75;1065888;55;20244;-84
2021/01/03 02:05:45;;;;;;;;;;;;;;;-3.02;94.14;92086.47;1067975;55;20216;-84
2021/01/03 02:06:51;;;;;;;;;;;;;;;-3.14;94.00;92085.56;1067709;55;20157;-84
2021/01/03 02:08:00;;;;;;;;;;;;;;;-3.18;95.18;92090.00;1063878;55;21134;-85
2021/01/03 02:09:03;;;;;;;;;;;;;;;-3.01;94.56;92087.97;1063809;55;20205;-85
2021/01/03 02:10:04;;;;;;;;;;;;;;;-3.09;94.58;92087.84;1063808;55;20300;-85
2021/01/03 02:11:08;;;;;;;;;;;;;;;-2.98;93.95;92095.09;1063592;55;20256;-84
2021/01/03 02:12:14;;;;;;;;;;;;;;;-3.08;94.00;92093.84;1065860;55;20290;-83
2021/01/03 02:13:23;;;;;;;;;;;;;;;-3.10;94.43;92094.19;1065695;55;20200;-85
2021/01/03 02:14:24;;;;;;;;;;;;;;;-3.07;94.23;92095.38;1066041;55;20170;-84
2021/01/03 02:15:27;;;;;;;;;;;;;;;-3.10;94.56;92088.97;1065789;55;20185;-84
2021/01/03 02:16:32;;;;;;;;;;;;;;;-3.10;94.55;92096.06;1065908;55;20335;-85
2021/01/03 02:17:33;;;;;;;;;;;;;;;-3.07;94.87;92093.50;1065606;55;20158;-83
2021/01/03 02:18:33;;;;;;;;;;;;;;;-3.15;94.81;92096.37;1065853;55;20174;-82
2021/01/03 02:19:34;;;;;;;;;;;;;;;-3.17;94.13;92095.97;1068364;55;20306;-82
2021/01/03 02:20:39;;;;;;;;;;;;;;;-3.13;94.13;92094.16;1063574;55;20193;-84
2021/01/03 02:21:58;;;;;;;;;;;;;;;-3.12;94.58;92096.41;1061623;56;20185;-83
2021/01/03 02:23:02;;;;;;;;;;;;;;;-3.10;94.99;92098.69;1062520;55;20166;-84
2021/01/03 02:24:05;;;;;;;;;;;;;;;-3.15;94.24;92099.00;1063442;55;20582;-84
2021/01/03 02:25:07;;;;;;;;;;;;;;;-3.20;94.45;92094.84;1063410;55;21248;-83
2021/01/03 02:26:09;;;;;;;;;;;;;;;-3.21;94.77;92103.75;1063349;55;20568;-83
2021/01/03 02:27:23;;;;;;;;;;;;;;;-3.21;95.32;92095.91;1063301;55;20184;-84
2021/01/03 02:28:24;;;;;;;;;;;;;;;-3.13;95.10;92096.75;1062292;55;20186;-85
2021/01/03 02:29:26;;;;;;;;;;;;;;;-3.11;94.59;92095.31;1061471;56;20178;-84
2021/01/03 02:30:27;;;;;;;;;;;;;;;-3.05;95.00;92096.50;1061336;56;20170;-83
2021/01/03 02:31:32;;;;;;;;;;;;;;;-3.10;95.11;92099.44;1061573;56;20728;-84
2021/01/03 02:32:34;;;;;;;;;;;;;;;-3.10;94.85;92088.97;1063691;55;20189;-84
2021/01/03 02:33:37;;;;;;;;;;;;;;;-3.12;94.39;92099.00;1065863;55;20219;-82
2021/01/03 02:34:41;;;;;;;;;;;;;;;-3.20;95.06;92091.47;1065854;55;20209;-84
2021/01/03 02:35:42;;;;;;;;;;;;;;;-3.21;95.15;92092.56;1065758;55;20177;-83
2021/01/03 02:36:45;;;;;;;;;;;;;;;-3.26;95.12;92096.22;1063408;55;20181;-84
2021/01/03 02:37:47;;;;;;;;;;;;;;;-3.27;94.82;92086.16;1063732;55;20177;-83
2021/01/03 02:39:07;;;;;;;;;;;;;;;-3.31;94.78;92091.31;1061534;55;20162;-85
2021/01/03 02:40:15;;;;;;;;;;;;;;;-3.32;95.01;92080.13;1057637;56;20647;-84
2021/01/03 02:41:17;;;;;;;;;;;;;;;-3.27;94.92;92084.28;1063264;55;20177;-83
2021/01/03 02:42:19;;;;;;;;;;;;;;;-3.27;95.33;92086.91;1065699;55;20188;-83
2021/01/03 02:43:20;;;;;;;;;;;;;;;-3.24;94.92;92085.44;1065453;55;20181;-84
2021/01/03 02:44:20;;;;;;;;;;;;;;;-3.24;95.29;92083.59;1063548;55;20253;-84
2021/01/03 02:45:24;;;;;;;;;;;;;;;-3.22;95.17;92083.22;1061439;56;20158;-85
2021/01/03 02:46:24;;;;;;;;;;;;;;;-3.24;95.26;92080.97;1061512;56;20644;-83
2021/01/03 02:47:28;;;;;;;;;;;;;;;-3.25;94.54;92086.53;1063534;55;20161;-84
2021/01/03 02:48:29;;;;;;;;;;;;;;;-3.21;94.43;92082.09;1067837;55;20641;-84
2021/01/03 02:49:29;;;;;;;;;;;;;;;-3.21;95.35;92084.72;1063480;55;20158;-83
2021/01/03 02:50:29;;;;;;;;;;;;;;;-3.23;95.24;92087.69;1063241;55;20158;-83
2021/01/03 02:51:34;;;;;;;;;;;;;;;-3.23;95.56;92082.47;1063418;55;20180;-83
2021/01/03 02:52:37;;;;;;;;;;;;;;;-3.22;94.72;92083.22;1063677;55;20197;-84
2021/01/03 02:53:38;;;;;;;;;;;;;;;-3.20;95.54;92081.78;1063509;55;20176;-84
2021/01/03 02:54:38;;;;;;;;;;;;;;;-3.15;95.19;92075.47;1061374;56;20166;-84
2021/01/03 02:55:39;;;;;;;;;;;;;;;-3.20;94.36;92081.03;1063573;55;20614;-84
2021/01/03 02:56:39;;;;;;;;;;;;;;;-3.17;94.54;92081.03;1065600;55;20254;-85
2021/01/03 02:57:40;;;;;;;;;;;;;;;-3.19;95.34;92078.03;1065665;55;20149;-85
2021/01/03 02:58:40;;;;;;;;;;;;;;;-3.25;95.38;92074.22;1067750;55;20184;-83
2021/01/03 02:59:41;;;;;;;;;;;;;;;-3.20;94.76;92083.63;1065556;55;20197;-85
2021/01/03 03:00:41;;;;;;;;;;;;;;;-3.22;95.03;92072.75;1063427;55;20154;-83
2021/01/03 03:01:42;;;;;;;;;;;;;;;-3.28;95.75;92077.56;1061421;56;20208;-84
2021/01/03 03:02:43;;;;;;;;;;;;;;;-3.27;95.78;92078.31;1061328;55;20166;-82
2021/01/03 03:03:43;;;;;;;;;;;;;;;-3.29;95.63;92086.50;1065854;55;20648;-85
2021/01/03 03:04:44;;;;;;;;;;;;;;;-3.28;95.79;92082.78;1063487;55;20181;-83
2021/01/03 03:05:45;;;;;;;;;;;;;;;-3.30;95.81;92079.75;1063729;55;20170;-83
2021/01/03 03:06:45;;;;;;;;;;;;;;;-3.32;95.27;92071.53;1063516;55;20169;-83
2021/01/03 03:07:47;;;;;;;;;;;;;;;-3.26;95.08;92082.41;1061499;55;20162;-85
2021/01/03 03:08:48;;;;;;;;;;;;;;;-3.26;95.94;92074.56;1061366;56;20600;-82
2021/01/03 03:09:48;;;;;;;;;;;;;;;-3.26;95.77;92072.72;1061297;56;20552;-84
2021/01/03 03:10:49;;;;;;;;;;;;;;;-3.25;95.83;92076.81;1063471;55;20184;-85
2021/01/03 03:11:49;;;;;;;;;;;;;;;-3.17;95.60;92072.44;1063554;55;20630;-83
2021/01/03 03:13:00;;;;;;;;;;;;;;;-3.24;94.87;92075.75;1063422;55;20158;-84
2021/01/03 03:14:00;;;;;;;;;;;;;;;-3.24;95.14;92085.44;1065530;55;20563;-84
2021/01/03 03:15:02;;;;;;;;;;;;;;;-3.25;95.27;92076.81;1063544;55;20259;-84
2021/01/03 03:16:02;;;;;;;;;;;;;;;-3.24;95.25;92083.59;1063442;55;20181;-83
2021/01/03 03:17:05;;;;;;;;;;;;;;;-3.17;95.56;92078.44;1063619;55;20178;-83
2021/01/03 03:18:10;;;;;;;;;;;;;;;-3.23;95.48;92082.47;1068188;55;20184;-85
2021/01/03 03:19:11;;;;;;;;;;;;;;;-3.22;95.09;92086.56;1063607;55;20154;-84
2021/01/03 03:20:12;;;;;;;;;;;;;;;-3.20;94.82;92083.63;1063573;55;20158;-83
2021/01/03 03:21:17;;;;;;;;;;;;;;;-3.13;95.85;92084.44;1063306;55;20158;-84
2021/01/03 03:22:17;;;;;;;;;;;;;;;-3.17;94.87;92085.50;1061647;55;20598;-85
2021/01/03 03:23:19;;;;;;;;;;;;;;;-3.17;95.38;92088.13;1063606;55;20275;-85
2021/01/03 03:24:20;;;;;;;;;;;;;;;-3.11;94.84;92084.13;1061345;56;20158;-83
2021/01/03 03:25:22;;;;;;;;;;;;;;;-3.14;95.28;92077.72;1059069;56;21212;-83
2021/01/03 03:26:22;;;;;;;;;;;;;;;-3.17;95.50;92082.91;1061366;55;20161;-84
2021/01/03 03:27:23;;;;;;;;;;;;;;;-3.16;95.31;92084.41;1063347;55;20158;-84
2021/01/03 03:28:23;;;;;;;;;;;;;;;-3.16;95.82;92087.78;1061503;56;20165;-83
2021/01/03 03:29:24;;;;;;;;;;;;;;;-3.10;94.68;92090.84;1063497;55;20196;-83
2021/01/03 03:30:25;;;;;;;;;;;;;;;-3.10;94.24;92090.84;1063404;55;20150;-83
2021/01/03 03:31:27;;;;;;;;;;;;;;;-3.10;94.19;92088.22;1065636;55;20691;-84
2021/01/03 03:32:27;;;;;;;;;;;;;;;-3.13;95.01;92094.91;1068003;55;20181;-83
2021/01/03 03:33:30;;;;;;;;;;;;;;;-3.12;94.73;92095.66;1063529;55;20217;-84
2021/01/03 03:34:31;;;;;;;;;;;;;;;-3.12;94.29;92091.19;1061565;55;20185;-83
2021/01/03 03:35:35;;;;;;;;;;;;;;;-3.15;93.41;92096.37;1063383;55;20197;-83
2021/01/03 03:36:35;;;;;;;;;;;;;;;-3.23;94.76;92095.53;1061575;55;20631;-84
2021/01/03 03:37:38;;;;;;;;;;;;;;;-3.22;95.02;92091.81;1063540;55;20166;-84
2021/01/03 03:38:38;;;;;;;;;;;;;;;-3.28;94.99;92100.31;1063503;55;20259;-84
2021/01/03 03:39:39;;;;;;;;;;;;;;;-3.24;94.37;92095.91;1065679;55;20590;-86
2021/01/03 03:40:40;;;;;;;;;;;;;;;-3.19;94.01;92091.09;1067824;55;20177;-83
2021/01/03 03:41:40;;;;;;;;;;;;;;;-3.21;94.43;92103.00;1063322;55;20254;-84
2021/01/03 03:42:41;;;;;;;;;;;;;;;-3.26;94.33;92093.62;1063432;55;20157;-83
2021/01/03 03:43:41;;;;;;;;;;;;;;;-3.27;94.67;92092.13;1063336;55;20177;-84
2021/01/03 03:44:43;;;;;;;;;;;;;;;-3.28;95.28;92088.00;1065626;55;20221;-82
2021/01/03 03:45:43;;;;;;;;;;;;;;;-3.26;94.54;92095.47;1061452;55;20162;-84
2021/01/03 03:46:49;;;;;;;;;;;;;;;-3.27;95.44;92083.53;1063493;55;20161;-84
2021/01/03 03:47:49;;;;;;;;;;;;;;;-3.26;95.04;92092.88;1063582;55;20174;-85
2021/01/03 03:48:50;;;;;;;;;;;;;;;-3.24;95.49;92086.19;1063406;55;20169;-83
2021/01/03 03:49:50;;;;;;;;;;;;;;;-3.22;94.50;92076.13;1063312;55;20165;-83
2021/01/03 03:50:51;;;;;;;;;;;;;;;-3.24;95.13;92082.84;1063341;55;20169;-85
2021/01/03 03:51:54;;;;;;;;;;;;;;;-3.25;94.94;92076.81;1063501;55;20189;-82
2021/01/03 03:52:55;;;;;;;;;;;;;;;-3.24;94.72;92083.59;1063522;55;20180;-84
2021/01/03 03:53:55;;;;;;;;;;;;;;;-3.22;95.07;92078.00;1063507;55;20158;-83
2021/01/03 03:54:56;;;;;;;;;;;;;;;-3.24;95.46;92080.97;1061271;56;20181;-84
2021/01/03 03:55:56;;;;;;;;;;;;;;;-3.24;95.88;92080.22;1061276;56;20158;-82
2021/01/03 03:57:01;;;;;;;;;;;;;;;-3.20;95.13;92081.03;1061299;56;20162;-84
2021/01/03 03:58:02;;;;;;;;;;;;;;;-3.22;95.08;92076.13;1059528;56;20190;-83
2021/01/03 03:59:04;;;;;;;;;;;;;;;-3.20;95.14;92079.16;1061318;56;20182;-83
2021/01/03 04:00:06;;;;;;;;;;;;;;;-3.20;95.35;92078.41;1063506;55;20173;-82
2021/01/03 04:01:08;;;;;;;;;;;;;;;-3.24;93.99;92080.22;1063345;55;20162;-85
2021/01/03 04:02:08;;;;;;;;;;;;;;;-3.23;94.20;92082.47;1059126;56;20154;-84
2021/01/03 04:03:09;;;;;;;;;;;;;;;-3.22;94.69;92081.34;1061329;56;20185;-84
2021/01/03 04:04:10;;;;;;;;;;;;;;;-3.23;94.97;92081.72;1061263;56;20162;-85
2021/01/03 04:05:12;;;;;;;;;;;;;;;-3.16;94.19;92076.56;1061249;56;20181;-83
2021/01/03 04:06:13;;;;;;;;;;;;;;;-3.19;94.84;92077.28;1061178;56;20259;-83
2021/01/03 04:07:13;;;;;;;;;;;;;;;-3.22;94.56;92070.91;1059084;56;20252;-84
2021/01/03 04:08:14;;;;;;;;;;;;;;;-3.26;94.52;92079.81;1061423;56;20227;-84
2021/01/03 04:09:15;;;;;;;;;;;;;;;-3.26;95.23;92080.56;1065670;55;20188;-83
2021/01/03 04:10:16;;;;;;;;;;;;;;;-3.30;95.12;92072.66;1063488;55;20154;-83
2021/01/03 04:11:17;;;;;;;;;;;;;;;-3.35;95.13;92072.22;1058793;56;20170;-83
2021/01/03 04:12:17;;;;;;;;;;;;;;;-3.36;95.17;92074.09;1058983;56;20158;-84
2021/01/03 04:13:18;;;;;;;;;;;;;;;-3.32;95.55;92077.50;1063360;55;20158;-84
2021/01/03 04:14:21;;;;;;;;;;;;;;;-3.32;94.62;92074.91;1063417;55;20169;-84
2021/01/03 04:15:21;;;;;;;;;;;;;;;-3.29;95.01;92076.06;1061331;56;20681;-84
2021/01/03 04:16:22;;;;;;;;;;;;;;;-3.24;95.19;92073.13;1061206;56;20268;-85
2021/01/03 04:17:22;;;;;;;;;;;;;;;-3.20;94.42;92071.31;1061264;56;20147;-83
2021/01/03 04:18:23;;;;;;;;;;;;;;;-3.15;94.03;92071.00;1063303;55;20189;-84
2021/01/03 04:19:24;;;;;;;;;;;;;;;-3.18;94.63;92068.34;1065692;55;20270;-83
2021/01/03 04:20:25;;;;;;;;;;;;;;;-3.25;94.73;92068.25;1066069;55;20272;-83
2021/01/03 04:21:25;;;;;;;;;;;;;;;-3.23;94.64;92079.09;1063410;56;20303;-83
2021/01/03 04:22:29;;;;;;;;;;;;;;;-3.22;94.31;92075.38;1061396;56;20158;-84
2021/01/03 04:23:29;;;;;;;;;;;;;;;-3.25;94.92;92069.00;1061332;56;20181;-85
2021/01/03 04:24:31;;;;;;;;;;;;;;;-3.27;95.09;92065.25;1059034;56;20651;-85
2021/01/03 04:25:31;;;;;;;;;;;;;;;-3.25;94.90;92074.22;1059195;56;20167;-83
2021/01/03 04:26:32;;;;;;;;;;;;;;;-3.23;94.04;92071.25;1063401;55;20598;-85
2021/01/03 04:27:33;;;;;;;;;;;;;;;-3.19;94.83;92070.19;1063249;56;20170;-83
2021/01/03 04:28:33;;;;;;;;;;;;;;;-3.21;94.17;92071.66;1061332;56;20174;-84
2021/01/03 04:29:35;;;;;;;;;;;;;;;-3.19;94.71;92074.69;1063503;56;20166;-84
2021/01/03 04:30:35;;;;;;;;;;;;;;;-3.20;93.86;92073.94;1061197;56;20157;-85
2021/01/03 04:31:36;;;;;;;;;;;;;;;-3.22;93.92;92076.13;1061295;56;20177;-83
2021/01/03 04:32:36;;;;;;;;;;;;;;;-3.21;94.61;92072.41;1063301;56;20150;-84
2021/01/03 04:33:40;;;;;;;;;;;;;;;-3.15;94.86;92073.63;1063346;56;20298;-83
2021/01/03 04:34:42;;;;;;;;;;;;;;;-3.23;94.90;92074.63;1063260;56;20162;-84
2021/01/03 04:35:42;;;;;;;;;;;;;;;-3.19;93.95;92070.19;1059156;56;20170;-83
2021/01/03 04:36:43;;;;;;;;;;;;;;;-3.18;94.38;92074.31;1061246;56;20185;-84
2021/01/03 04:37:43;;;;;;;;;;;;;;;-3.23;94.47;92074.63;1065415;55;20193;-83
2021/01/03 04:38:44;;;;;;;;;;;;;;;-3.27;93.52;92071.22;1061215;56;20159;-83
2021/01/03 04:39:45;;;;;;;;;;;;;;;-3.22;94.64;92073.50;1061210;56;20150;-84
2021/01/03 04:40:46;;;;;;;;;;;;;;;-3.24;94.21;92080.22;1063604;56;20661;-84
2021/01/03 04:41:55;;;;;;;;;;;;;;;-3.23;94.67;92076.50;1063424;56;20323;-84
2021/01/03 04:42:57;;;;;;;;;;;;;;;-3.26;93.58;92077.19;1061239;56;20228;-84
2021/01/03 04:44:00;;;;;;;;;;;;;;;-3.16;93.63;92073.94;1059048;56;20190;-84
2021/01/03 04:45:05;;;;;;;;;;;;;;;-3.22;93.46;92081.34;1061265;55;20165;-83
2021/01/03 04:46:10;;;;;;;;;;;;;;;-3.30;93.73;92072.66;1063601;55;20179;-83
2021/01/03 04:47:24;;;;;;;;;;;;;;;-3.28;93.78;92077.56;1061125;56;20653;-83
2021/01/03 04:48:26;;;;;;;;;;;;;;;-3.25;94.33;92083.91;1062200;55;20229;-85
2021/01/03 04:49:31;;;;;;;;;;;;;;;-3.26;93.43;92077.19;1065830;55;20168;-83
2021/01/03 04:50:49;;;;;;;;;;;;;;;-3.29;93.96;92086.50;1062405;56;20258;-83
2021/01/03 04:51:56;;;;;;;;;;;;;;;-3.30;93.86;92074.53;1061784;56;20181;-83
2021/01/03 04:53:15;;;;;;;;;;;;;;;-3.30;94.26;92077.88;1063889;55;20605;-83
2021/01/03 04:54:19;;;;;;;;;;;;;;;-3.39;94.23;92077.41;1065369;55;20177;-83
2021/01/03 04:55:28;;;;;;;;;;;;;;;-3.35;94.48;92072.22;1063407;55;20162;-83
2021/01/03 04:56:37;;;;;;;;;;;;;;;-3.28;95.32;92080.16;1063623;55;20157;-83
2021/01/03 04:57:48;;;;;;;;;;;;;;;-3.33;94.91;92070.03;1065885;55;20179;-84
2021/01/03 04:58:51;;;;;;;;;;;;;;;-3.29;94.58;92076.06;1063276;56;20173;-83
2021/01/03 04:59:56;;;;;;;;;;;;;;;-3.31;94.81;92078.25;1063426;55;20197;-83
2021/01/03 05:00:59;;;;;;;;;;;;;;;-3.27;94.88;92075.69;1063204;56;20170;-83
2021/01/03 05:02:18;;;;;;;;;;;;;;;-3.25;94.04;92076.06;1061292;55;20658;-83
2021/01/03 05:03:30;;;;;;;;;;;;;;;-3.25;94.69;92071.59;1065981;55;20164;-82
2021/01/03 05:04:48;;;;;;;;;;;;;;;-3.28;95.16;92080.16;1065360;55;20185;-84
2021/01/03 05:05:51;;;;;;;;;;;;;;;-3.16;94.07;92073.94;1061704;56;20162;-83
2021/01/03 05:06:53;;;;;;;;;;;;;;;-3.17;94.09;92075.81;1063412;55;20154;-84
2021/01/03 05:08:01;;;;;;;;;;;;;;;-3.16;93.62;92079.94;1065608;55;20241;-84
2021/01/03 05:09:05;;;;;;;;;;;;;;;-3.26;93.68;92074.56;1061393;56;20639;-83
2021/01/03 05:10:13;;;;;;;;;;;;;;;-3.22;93.73;92081.34;1061306;55;20224;-83
2021/01/03 05:11:15;;;;;;;;;;;;;;;-3.30;94.23;92077.88;1063375;55;20355;-85
2021/01/03 05:12:27;;;;;;;;;;;;;;;-3.34;94.69;92079.69;1063383;55;20170;-84
2021/01/03 05:13:29;;;;;;;;;;;;;;;-3.32;94.23;92089.81;1061564;56;20278;-84
2021/01/03 05:14:32;;;;;;;;;;;;;;;-3.21;93.95;92082.84;1063399;55;20259;-84
2021/01/03 05:15:33;;;;;;;;;;;;;;;-3.24;93.81;92093.28;1065338;55;20184;-86
2021/01/03 05:16:34;;;;;;;;;;;;;;;-3.24;94.30;92083.59;1063377;55;20217;-83
2021/01/03 05:17:35;;;;;;;;;;;;;;;-3.25;94.36;92089.91;1061160;56;20646;-83
2021/01/03 05:18:36;;;;;;;;;;;;;;;-3.25;94.71;92084.66;1061200;55;20619;-83
2021/01/03 05:19:36;;;;;;;;;;;;;;;-3.28;94.28;92082.78;1063131;56;20162;-84
2021/01/03 05:20:37;;;;;;;;;;;;;;;-3.31;95.25;92083.47;1065448;55;20750;-84
2021/01/03 05:21:44;;;;;;;;;;;;;;;-3.24;94.05;92085.44;1065396;55;21241;-84
2021/01/03 05:22:45;;;;;;;;;;;;;;;-3.31;93.74;92089.47;1068023;55;20250;-83
2021/01/03 05:23:57;;;;;;;;;;;;;;;-3.37;94.56;92084.91;1068311;55;20633;-83
2021/01/03 05:24:58;;;;;;;;;;;;;;;-3.33;94.55;92085.72;1063542;55;20193;-84
2021/01/03 05:26:00;;;;;;;;;;;;;;;-3.31;94.35;92092.06;1061579;55;20296;-84